createdAt,value
2017-12-22T00:00:08.319Z,0.00
2017-12-22T00:01:08.308Z,0.00
2017-12-22T00:02:08.315Z,0.00
2017-12-22T00:03:08.323Z,0.00
2017-12-22T00:04:08.290Z,0.00
2017-12-22T00:05:08.283Z,0.00
2017-12-22T00:06:08.276Z,0.00
2017-12-22T00:07:08.272Z,0.00
2017-12-22T00:08:08.266Z,0.00
2017-12-22T00:09:08.255Z,0.00
2017-12-22T00:10:08.252Z,0.00
2017-12-22T00:11:08.245Z,0.00
2017-12-22T00:12:08.256Z,0.00
2017-12-22T00:13:08.336Z,0.00
2017-12-22T00:14:08.224Z,0.00
2017-12-22T00:15:08.218Z,0.00
2017-12-22T00:16:08.213Z,0.00
2017-12-22T00:17:08.204Z,0.00
2017-12-22T00:18:08.199Z,0.00
2017-12-22T00:19:08.195Z,0.00
2017-12-22T00:20:08.193Z,0.00
2017-12-22T00:21:08.183Z,0.00
2017-12-22T00:22:08.175Z,0.00
2017-12-22T00:23:08.166Z,0.00
2017-12-22T00:24:08.160Z,0.00
2017-12-22T00:25:08.331Z,0.00
2017-12-22T00:26:08.167Z,0.00
2017-12-22T00:27:08.140Z,0.00
2017-12-22T00:28:08.139Z,0.00
2017-12-22T00:29:08.129Z,0.00
2017-12-22T00:30:08.122Z,0.00
2017-12-22T00:31:08.117Z,0.00
2017-12-22T00:32:08.108Z,0.00
2017-12-22T00:33:08.103Z,0.00
2017-12-22T00:34:08.102Z,0.00
2017-12-22T00:35:08.080Z,0.00
2017-12-22T00:36:08.085Z,0.00
2017-12-22T00:37:08.142Z,0.00
2017-12-22T00:38:08.263Z,0.00
2017-12-22T00:39:08.063Z,0.00
2017-12-22T00:40:08.058Z,0.00
2017-12-22T00:41:08.048Z,0.00
2017-12-22T00:42:08.048Z,0.00
2017-12-22T00:43:08.038Z,0.00
2017-12-22T00:44:08.039Z,0.00
2017-12-22T00:45:08.023Z,0.00
2017-12-22T00:46:08.022Z,0.00
2017-12-22T00:47:08.224Z,0.00
2017-12-22T00:48:08.101Z,0.00
2017-12-22T00:49:08.001Z,0.00
2017-12-22T00:50:07.993Z,0.00
2017-12-22T00:51:07.991Z,0.00
2017-12-22T00:52:07.981Z,0.00
2017-12-22T00:53:07.973Z,0.00
2017-12-22T00:54:08.003Z,0.00
2017-12-22T00:55:08.093Z,0.00
2017-12-22T00:56:07.956Z,0.00
2017-12-22T00:57:07.945Z,0.00
2017-12-22T00:58:07.941Z,0.00
2017-12-22T00:59:07.935Z,0.00
2017-12-22T01:00:07.929Z,0.00
2017-12-22T01:01:07.921Z,0.00
2017-12-22T01:02:07.938Z,0.00
2017-12-22T01:03:08.029Z,0.00
2017-12-22T01:04:07.903Z,0.00
2017-12-22T01:05:07.895Z,0.00
2017-12-22T01:06:07.943Z,0.00
2017-12-22T01:07:07.881Z,0.00
2017-12-22T01:08:07.881Z,0.00
2017-12-22T01:09:07.868Z,0.00
2017-12-22T01:10:07.995Z,0.00
2017-12-22T01:11:07.887Z,0.00
2017-12-22T01:12:07.852Z,0.00
2017-12-22T01:13:07.845Z,0.00
2017-12-22T01:14:07.836Z,0.00
2017-12-22T01:15:07.828Z,0.00
2017-12-22T01:16:07.824Z,0.00
2017-12-22T01:17:07.944Z,0.00
2017-12-22T01:18:07.811Z,0.00
2017-12-22T01:19:07.843Z,0.00
2017-12-22T01:20:07.797Z,0.00
2017-12-22T01:21:07.789Z,0.00
2017-12-22T01:22:07.924Z,0.00
2017-12-22T01:23:07.869Z,0.00
2017-12-22T01:24:07.773Z,0.00
2017-12-22T01:25:07.765Z,0.00
2017-12-22T01:26:07.758Z,0.00
2017-12-22T01:27:07.787Z,0.00
2017-12-22T01:28:07.863Z,0.00
2017-12-22T01:29:07.780Z,0.00
2017-12-22T01:30:07.731Z,0.00
2017-12-22T01:31:07.724Z,0.00
2017-12-22T01:32:07.719Z,0.00
2017-12-22T01:33:07.710Z,0.00
2017-12-22T01:34:07.708Z,0.00
2017-12-22T01:35:07.700Z,0.00
2017-12-22T01:36:07.692Z,0.00
2017-12-22T01:37:07.684Z,0.00
2017-12-22T01:38:07.864Z,0.00
2017-12-22T01:39:07.934Z,0.00
2017-12-22T01:40:07.666Z,0.00
2017-12-22T01:41:07.658Z,0.00
2017-12-22T01:42:07.652Z,0.00
2017-12-22T01:43:07.758Z,0.00
2017-12-22T01:44:07.660Z,0.00
2017-12-22T01:45:07.641Z,0.00
2017-12-22T01:46:07.627Z,0.00
2017-12-22T01:47:07.630Z,0.00
2017-12-22T01:48:07.638Z,0.00
2017-12-22T01:49:07.607Z,0.00
2017-12-22T01:50:07.663Z,0.00
2017-12-22T01:51:07.589Z,0.00
2017-12-22T01:52:07.588Z,0.00
2017-12-22T01:53:07.581Z,0.00
2017-12-22T01:54:07.575Z,0.00
2017-12-22T01:55:07.680Z,0.00
2017-12-22T01:56:07.659Z,0.00
2017-12-22T01:57:07.555Z,0.00
2017-12-22T01:58:07.548Z,0.00
2017-12-22T01:59:07.543Z,0.00
2017-12-22T02:00:07.544Z,0.00
2017-12-22T02:01:07.530Z,0.00
2017-12-22T02:02:07.523Z,0.00
2017-12-22T02:03:07.517Z,0.00
2017-12-22T02:04:07.783Z,0.00
2017-12-22T02:05:07.502Z,0.00
2017-12-22T02:06:07.496Z,0.00
2017-12-22T02:07:07.490Z,0.00
2017-12-22T02:08:07.474Z,0.00
2017-12-22T02:09:07.478Z,0.00
2017-12-22T02:10:07.480Z,0.00
2017-12-22T02:11:07.671Z,0.00
2017-12-22T02:12:07.459Z,0.00
2017-12-22T02:13:07.447Z,0.00
2017-12-22T02:14:07.444Z,0.00
2017-12-22T02:15:07.865Z,0.00
2017-12-22T02:16:07.598Z,0.00
2017-12-22T02:17:07.423Z,0.00
2017-12-22T02:18:07.418Z,0.00
2017-12-22T02:19:07.413Z,0.00
2017-12-22T02:20:07.405Z,0.00
2017-12-22T02:21:07.529Z,0.00
2017-12-22T02:22:07.451Z,0.00
2017-12-22T02:23:07.394Z,0.00
2017-12-22T02:24:07.384Z,0.00
2017-12-22T02:25:07.371Z,0.00
2017-12-22T02:26:07.366Z,0.00
2017-12-22T02:27:07.360Z,0.00
2017-12-22T02:28:07.497Z,0.00
2017-12-22T02:29:07.549Z,0.00
2017-12-22T02:30:07.454Z,0.00
2017-12-22T02:31:07.334Z,0.00
2017-12-22T02:32:07.329Z,0.00
2017-12-22T02:33:07.322Z,0.00
2017-12-22T02:34:07.315Z,0.00
2017-12-22T02:35:07.308Z,0.00
2017-12-22T02:36:07.498Z,0.00
2017-12-22T02:37:07.400Z,0.00
2017-12-22T02:38:07.287Z,0.00
2017-12-22T02:39:07.283Z,0.00
2017-12-22T02:40:07.285Z,0.00
2017-12-22T02:41:07.270Z,0.00
2017-12-22T02:42:07.262Z,0.00
2017-12-22T02:43:10.688Z,0.00
2017-12-22T02:44:07.249Z,0.00
2017-12-22T02:45:07.242Z,0.00
2017-12-22T02:46:07.281Z,0.00
2017-12-22T02:47:07.844Z,0.00
2017-12-22T02:48:07.375Z,0.00
2017-12-22T02:49:07.216Z,0.00
2017-12-22T02:50:07.211Z,0.00
2017-12-22T02:51:07.213Z,0.00
2017-12-22T02:52:07.197Z,0.00
2017-12-22T02:53:07.180Z,0.00
2017-12-22T02:54:07.214Z,0.00
2017-12-22T02:55:07.211Z,0.00
2017-12-22T02:56:07.173Z,0.00
2017-12-22T02:57:07.161Z,0.00
2017-12-22T02:58:07.156Z,0.00
2017-12-22T02:59:07.152Z,0.00
2017-12-22T03:00:07.161Z,0.00
2017-12-22T03:01:07.139Z,0.00
2017-12-22T03:02:07.132Z,0.00
2017-12-22T03:03:07.175Z,0.00
2017-12-22T03:04:07.271Z,0.00
2017-12-22T03:05:07.457Z,0.00
2017-12-22T03:06:07.106Z,0.00
2017-12-22T03:07:07.101Z,0.00
2017-12-22T03:08:07.093Z,0.00
2017-12-22T03:09:07.087Z,0.00
2017-12-22T03:10:07.080Z,0.00
2017-12-22T03:11:07.104Z,0.00
2017-12-22T03:12:07.092Z,0.00
2017-12-22T03:13:07.054Z,0.00
2017-12-22T03:14:07.057Z,0.00
2017-12-22T03:15:07.045Z,0.00
2017-12-22T03:16:07.067Z,0.00
2017-12-22T03:17:07.032Z,0.00
2017-12-22T03:18:07.027Z,0.00
2017-12-22T03:19:07.022Z,0.00
2017-12-22T03:20:07.016Z,0.00
2017-12-22T03:21:07.009Z,0.00
2017-12-22T03:22:07.004Z,0.00
2017-12-22T03:23:06.995Z,0.00
2017-12-22T03:24:06.993Z,0.00
2017-12-22T03:25:06.985Z,0.00
2017-12-22T03:26:06.969Z,0.00
2017-12-22T03:27:07.107Z,0.00
2017-12-22T03:28:06.962Z,0.00
2017-12-22T03:29:06.957Z,0.00
2017-12-22T03:30:06.952Z,0.00
2017-12-22T03:31:06.944Z,0.00
2017-12-22T03:32:06.938Z,0.00
2017-12-22T03:33:06.931Z,0.00
2017-12-22T03:34:06.925Z,0.00
2017-12-22T03:35:06.918Z,0.00
2017-12-22T03:36:06.911Z,0.00
2017-12-22T03:37:06.906Z,0.00
2017-12-22T03:38:06.899Z,0.00
2017-12-22T03:39:06.897Z,0.00
2017-12-22T03:40:06.894Z,0.00
2017-12-22T03:41:06.880Z,0.00
2017-12-22T03:42:07.107Z,0.00
2017-12-22T03:43:07.164Z,0.00
2017-12-22T03:44:06.860Z,0.00
2017-12-22T03:45:06.853Z,0.00
2017-12-22T03:46:06.844Z,0.00
2017-12-22T03:47:08.886Z,0.00
2017-12-22T03:48:06.833Z,0.00
2017-12-22T03:49:07.018Z,0.00
2017-12-22T03:50:06.821Z,0.00
2017-12-22T03:51:06.864Z,0.00
2017-12-22T03:52:06.809Z,0.00
2017-12-22T03:53:06.802Z,0.00
2017-12-22T03:54:06.785Z,0.00
2017-12-22T03:55:07.608Z,0.00
2017-12-22T03:56:06.799Z,0.00
2017-12-22T03:57:06.774Z,0.00
2017-12-22T03:58:06.769Z,0.00
2017-12-22T03:59:06.823Z,0.00
2017-12-22T04:00:06.756Z,0.00
2017-12-22T04:01:07.044Z,0.00
2017-12-22T04:02:06.854Z,0.00
2017-12-22T04:03:06.841Z,0.00
2017-12-22T04:04:06.730Z,0.00
2017-12-22T04:05:06.723Z,0.00
2017-12-22T04:06:06.798Z,0.00
2017-12-22T04:07:06.770Z,0.00
2017-12-22T04:08:06.828Z,0.00
2017-12-22T04:09:06.695Z,0.00
2017-12-22T04:10:06.689Z,0.00
2017-12-22T04:11:06.682Z,0.00
2017-12-22T04:12:06.678Z,0.00
2017-12-22T04:13:06.673Z,0.00
2017-12-22T04:14:06.727Z,0.00
2017-12-22T04:15:06.815Z,0.00
2017-12-22T04:16:06.652Z,0.00
2017-12-22T04:17:06.646Z,0.00
2017-12-22T04:18:06.640Z,0.00
2017-12-22T04:19:06.675Z,0.00
2017-12-22T04:20:06.627Z,0.00
2017-12-22T04:21:06.625Z,0.00
2017-12-22T04:22:06.614Z,0.00
2017-12-22T04:23:06.694Z,0.00
2017-12-22T04:24:06.601Z,0.00
2017-12-22T04:25:06.599Z,0.00
2017-12-22T04:26:06.588Z,0.00
2017-12-22T04:27:06.582Z,0.00
2017-12-22T04:28:06.700Z,0.00
2017-12-22T04:29:06.569Z,0.00
2017-12-22T04:30:06.563Z,0.00
2017-12-22T04:31:06.553Z,0.00
2017-12-22T04:32:06.552Z,0.00
2017-12-22T04:33:06.550Z,0.00
2017-12-22T04:34:06.539Z,0.00
2017-12-22T04:35:06.554Z,0.00
2017-12-22T04:36:06.524Z,0.00
2017-12-22T04:37:06.516Z,0.00
2017-12-22T04:38:06.511Z,0.00
2017-12-22T04:39:06.504Z,0.00
2017-12-22T04:40:06.504Z,0.00
2017-12-22T04:41:06.516Z,0.00
2017-12-22T04:42:06.705Z,0.00
2017-12-22T04:43:06.542Z,0.00
2017-12-22T04:44:06.844Z,0.00
2017-12-22T04:45:06.466Z,0.00
2017-12-22T04:46:06.459Z,0.00
2017-12-22T04:47:06.451Z,0.00
2017-12-22T04:48:06.446Z,0.00
2017-12-22T04:49:06.437Z,0.00
2017-12-22T04:50:06.432Z,0.00
2017-12-22T04:51:06.428Z,0.00
2017-12-22T04:52:06.421Z,0.00
2017-12-22T04:53:06.414Z,0.00
2017-12-22T04:54:06.413Z,0.00
2017-12-22T04:55:06.402Z,0.00
2017-12-22T04:56:06.394Z,0.00
2017-12-22T04:57:06.483Z,0.00
2017-12-22T04:58:06.388Z,0.00
2017-12-22T04:59:06.376Z,0.00
2017-12-22T05:00:06.371Z,0.00
2017-12-22T05:01:06.363Z,0.00
2017-12-22T05:02:06.356Z,0.00
2017-12-22T05:03:06.349Z,0.00
2017-12-22T05:04:06.345Z,0.00
2017-12-22T05:05:06.338Z,0.00
2017-12-22T05:06:06.332Z,0.00
2017-12-22T05:07:06.325Z,0.00
2017-12-22T05:08:06.321Z,0.00
2017-12-22T05:09:06.311Z,0.00
2017-12-22T05:10:06.350Z,0.00
2017-12-22T05:11:06.342Z,0.00
2017-12-22T05:12:06.291Z,0.00
2017-12-22T05:13:06.287Z,0.00
2017-12-22T05:14:06.333Z,0.00
2017-12-22T05:15:06.274Z,0.00
2017-12-22T05:16:06.267Z,0.00
2017-12-22T05:17:06.261Z,0.00
2017-12-22T05:18:06.254Z,0.00
2017-12-22T05:19:06.252Z,0.00
2017-12-22T05:20:06.529Z,0.00
2017-12-22T05:21:06.227Z,0.00
2017-12-22T05:22:06.230Z,0.00
2017-12-22T05:23:06.225Z,0.00
2017-12-22T05:24:06.222Z,0.00
2017-12-22T05:25:06.209Z,0.00
2017-12-22T05:26:06.205Z,0.00
2017-12-22T05:27:06.196Z,0.00
2017-12-22T05:28:06.244Z,0.00
2017-12-22T05:29:06.184Z,0.00
2017-12-22T05:30:06.181Z,0.00
2017-12-22T05:31:06.173Z,0.00
2017-12-22T05:32:06.156Z,0.00
2017-12-22T05:33:06.149Z,0.00
2017-12-22T05:34:06.223Z,0.00
2017-12-22T05:35:06.146Z,0.00
2017-12-22T05:36:06.139Z,0.00
2017-12-22T05:37:06.131Z,0.00
2017-12-22T05:38:06.127Z,0.00
2017-12-22T05:39:06.121Z,0.00
2017-12-22T05:40:06.112Z,0.00
2017-12-22T05:41:06.108Z,0.00
2017-12-22T05:42:06.105Z,0.00
2017-12-22T05:43:06.369Z,0.00
2017-12-22T05:44:06.083Z,0.00
2017-12-22T05:45:06.085Z,0.00
2017-12-22T05:46:06.076Z,0.00
2017-12-22T05:47:06.098Z,0.00
2017-12-22T05:48:06.063Z,0.00
2017-12-22T05:49:06.057Z,0.00
2017-12-22T05:50:06.051Z,0.00
2017-12-22T05:51:06.044Z,0.00
2017-12-22T05:52:06.040Z,0.00
2017-12-22T05:53:06.031Z,0.00
2017-12-22T05:54:06.024Z,0.00
2017-12-22T05:55:06.019Z,0.00
2017-12-22T05:56:06.057Z,0.00
2017-12-22T05:57:06.005Z,0.00
2017-12-22T05:58:06.004Z,0.00
2017-12-22T05:59:05.993Z,0.00
2017-12-22T06:00:05.988Z,0.00
2017-12-22T06:01:05.981Z,0.00
2017-12-22T06:02:05.984Z,0.00
2017-12-22T06:03:06.003Z,0.00
2017-12-22T06:04:06.112Z,0.00
2017-12-22T06:05:06.014Z,0.00
2017-12-22T06:06:05.950Z,0.00
2017-12-22T06:07:05.941Z,0.00
2017-12-22T06:08:05.937Z,0.00
2017-12-22T06:09:06.141Z,0.00
2017-12-22T06:10:05.943Z,0.00
2017-12-22T06:11:05.921Z,0.00
2017-12-22T06:12:05.909Z,0.00
2017-12-22T06:13:06.010Z,0.00
2017-12-22T06:14:06.127Z,0.00
2017-12-22T06:15:05.906Z,0.00
2017-12-22T06:16:05.890Z,0.00
2017-12-22T06:17:05.880Z,0.00
2017-12-22T06:18:05.872Z,0.00
2017-12-22T06:19:05.866Z,0.00
2017-12-22T06:20:05.861Z,0.00
2017-12-22T06:21:06.017Z,0.00
2017-12-22T06:22:05.921Z,0.00
2017-12-22T06:23:05.842Z,0.00
2017-12-22T06:24:05.836Z,0.00
2017-12-22T06:25:05.830Z,0.00
2017-12-22T06:26:06.064Z,0.00
2017-12-22T06:27:05.907Z,0.00
2017-12-22T06:28:05.857Z,0.00
2017-12-22T06:29:05.803Z,0.00
2017-12-22T06:30:05.804Z,0.00
2017-12-22T06:31:05.793Z,0.00
2017-12-22T06:32:05.792Z,0.00
2017-12-22T06:33:05.889Z,0.00
2017-12-22T06:34:05.774Z,0.00
2017-12-22T06:35:05.767Z,0.00
2017-12-22T06:36:05.839Z,0.00
2017-12-22T06:37:05.751Z,0.00
2017-12-22T06:38:05.849Z,0.00
2017-12-22T06:39:05.740Z,0.00
2017-12-22T06:40:05.731Z,0.00
2017-12-22T06:41:05.836Z,0.00
2017-12-22T06:42:05.724Z,0.00
2017-12-22T06:43:05.722Z,0.00
2017-12-22T06:44:05.723Z,0.00
2017-12-22T06:45:05.720Z,0.00
2017-12-22T06:46:05.695Z,0.00
2017-12-22T06:47:05.682Z,0.00
2017-12-22T06:48:05.782Z,0.00
2017-12-22T06:49:05.675Z,0.00
2017-12-22T06:50:05.669Z,0.00
2017-12-22T06:51:05.944Z,0.00
2017-12-22T06:52:05.724Z,0.00
2017-12-22T06:53:05.655Z,0.00
2017-12-22T06:54:05.645Z,0.00
2017-12-22T06:55:05.731Z,0.00
2017-12-22T06:56:05.636Z,0.00
2017-12-22T06:57:05.625Z,0.00
2017-12-22T06:58:05.619Z,0.00
2017-12-22T06:59:05.614Z,0.00
2017-12-22T07:00:05.606Z,0.00
2017-12-22T07:01:05.601Z,0.00
2017-12-22T07:02:05.757Z,0.00
2017-12-22T07:03:05.751Z,0.00
2017-12-22T07:04:05.607Z,0.00
2017-12-22T07:05:05.573Z,0.00
2017-12-22T07:06:05.569Z,0.00
2017-12-22T07:07:05.562Z,0.00
2017-12-22T07:08:05.556Z,0.00
2017-12-22T07:09:05.607Z,0.00
2017-12-22T07:10:05.583Z,0.00
2017-12-22T07:11:05.534Z,0.00
2017-12-22T07:12:05.531Z,0.00
2017-12-22T07:13:05.524Z,0.00
2017-12-22T07:14:05.517Z,0.00
2017-12-22T07:15:05.509Z,0.00
2017-12-22T07:16:05.562Z,0.00
2017-12-22T07:17:05.825Z,0.00
2017-12-22T07:18:05.589Z,0.00
2017-12-22T07:19:05.497Z,0.00
2017-12-22T07:20:05.481Z,0.00
2017-12-22T07:21:05.473Z,0.00
2017-12-22T07:22:05.483Z,0.00
2017-12-22T07:23:05.577Z,0.00
2017-12-22T07:24:05.453Z,0.00
2017-12-22T07:25:05.446Z,0.00
2017-12-22T07:26:05.441Z,0.00
2017-12-22T07:27:05.435Z,0.00
2017-12-22T07:28:05.433Z,0.00
2017-12-22T07:29:05.421Z,0.00
2017-12-22T07:30:05.418Z,0.00
2017-12-22T07:31:05.408Z,0.00
2017-12-22T07:32:05.406Z,0.00
2017-12-22T07:33:05.394Z,0.00
2017-12-22T07:34:05.477Z,0.00
2017-12-22T07:35:05.384Z,5.63
2017-12-22T07:36:05.378Z,5.63
2017-12-22T07:37:05.371Z,5.63
2017-12-22T07:38:05.365Z,5.63
2017-12-22T07:39:05.437Z,5.63
2017-12-22T07:40:05.360Z,5.63
2017-12-22T07:41:05.346Z,5.63
2017-12-22T07:42:05.340Z,5.63
2017-12-22T07:43:05.337Z,5.63
2017-12-22T07:44:05.326Z,5.63
2017-12-22T07:45:05.436Z,5.63
2017-12-22T07:46:05.403Z,11.25
2017-12-22T07:47:05.308Z,11.25
2017-12-22T07:48:05.304Z,11.25
2017-12-22T07:49:05.294Z,11.25
2017-12-22T07:50:05.289Z,11.25
2017-12-22T07:51:05.290Z,11.25
2017-12-22T07:52:05.275Z,11.25
2017-12-22T07:53:05.269Z,16.88
2017-12-22T07:54:05.264Z,16.88
2017-12-22T07:55:05.257Z,16.88
2017-12-22T07:56:05.250Z,16.88
2017-12-22T07:57:05.245Z,16.88
2017-12-22T07:58:05.237Z,16.88
2017-12-22T07:59:05.237Z,16.88
2017-12-22T08:00:05.232Z,16.88
2017-12-22T08:01:05.219Z,22.50
2017-12-22T08:02:05.389Z,22.50
2017-12-22T08:03:05.329Z,22.50
2017-12-22T08:04:05.343Z,22.50
2017-12-22T08:05:05.193Z,22.50
2017-12-22T08:06:05.186Z,22.50
2017-12-22T08:07:05.188Z,28.13
2017-12-22T08:08:05.278Z,28.13
2017-12-22T08:09:05.168Z,28.13
2017-12-22T08:10:05.163Z,28.13
2017-12-22T08:11:05.155Z,28.13
2017-12-22T08:12:05.252Z,28.13
2017-12-22T08:13:05.509Z,28.13
2017-12-22T08:14:05.137Z,28.13
2017-12-22T08:15:05.133Z,28.13
2017-12-22T08:16:05.125Z,28.13
2017-12-22T08:17:05.119Z,28.13
2017-12-22T08:18:05.109Z,28.13
2017-12-22T08:19:05.107Z,33.75
2017-12-22T08:20:05.131Z,33.75
2017-12-22T08:21:05.131Z,33.75
2017-12-22T08:22:05.090Z,33.75
2017-12-22T08:23:05.082Z,33.75
2017-12-22T08:24:05.076Z,39.38
2017-12-22T08:25:05.066Z,39.38
2017-12-22T08:26:05.065Z,45.00
2017-12-22T08:27:05.049Z,45.00
2017-12-22T08:28:05.051Z,45.00
2017-12-22T08:29:05.043Z,45.00
2017-12-22T08:30:05.195Z,50.63
2017-12-22T08:31:05.031Z,50.63
2017-12-22T08:32:05.025Z,45.00
2017-12-22T08:33:05.031Z,45.00
2017-12-22T08:34:05.019Z,45.00
2017-12-22T08:35:05.007Z,45.00
2017-12-22T08:36:05.004Z,45.00
2017-12-22T08:37:05.052Z,45.00
2017-12-22T08:38:06.497Z,45.00
2017-12-22T08:39:05.043Z,45.00
2017-12-22T08:40:04.976Z,45.00
2017-12-22T08:41:04.970Z,45.00
2017-12-22T08:42:04.962Z,45.00
2017-12-22T08:43:04.958Z,45.00
2017-12-22T08:44:04.954Z,45.00
2017-12-22T08:45:05.004Z,45.00
2017-12-22T08:46:05.013Z,45.00
2017-12-22T08:47:04.938Z,45.00
2017-12-22T08:48:04.927Z,45.00
2017-12-22T08:49:04.921Z,50.63
2017-12-22T08:50:05.245Z,50.63
2017-12-22T08:51:04.997Z,50.63
2017-12-22T08:52:04.907Z,50.63
2017-12-22T08:53:04.897Z,50.63
2017-12-22T08:54:04.892Z,50.63
2017-12-22T08:55:05.016Z,50.63
2017-12-22T08:56:04.960Z,50.63
2017-12-22T08:57:05.203Z,50.63
2017-12-22T08:58:04.865Z,50.63
2017-12-22T08:59:04.859Z,56.25
2017-12-22T09:00:04.863Z,56.25
2017-12-22T09:01:04.844Z,56.25
2017-12-22T09:02:04.838Z,56.25
2017-12-22T09:03:04.835Z,56.25
2017-12-22T09:04:04.823Z,56.25
2017-12-22T09:05:04.825Z,50.63
2017-12-22T09:06:04.813Z,50.63
2017-12-22T09:07:04.810Z,50.63
2017-12-22T09:08:04.806Z,50.63
2017-12-22T09:09:04.801Z,50.63
2017-12-22T09:10:04.791Z,50.63
2017-12-22T09:11:04.788Z,56.25
2017-12-22T09:12:04.979Z,56.25
2017-12-22T09:13:04.772Z,61.88
2017-12-22T09:14:04.812Z,67.50
2017-12-22T09:15:05.007Z,67.50
2017-12-22T09:16:04.925Z,73.13
2017-12-22T09:17:04.981Z,73.13
2017-12-22T09:18:04.743Z,73.13
2017-12-22T09:19:04.738Z,73.13
2017-12-22T09:20:04.731Z,73.13
2017-12-22T09:21:04.724Z,73.13
2017-12-22T09:22:04.718Z,67.50
2017-12-22T09:23:04.712Z,67.50
2017-12-22T09:24:05.168Z,61.88
2017-12-22T09:25:04.716Z,61.88
2017-12-22T09:26:04.695Z,61.88
2017-12-22T09:27:04.686Z,61.88
2017-12-22T09:28:04.748Z,61.88
2017-12-22T09:29:04.676Z,61.88
2017-12-22T09:30:04.671Z,67.50
2017-12-22T09:31:04.663Z,73.13
2017-12-22T09:32:04.657Z,78.75
2017-12-22T09:33:05.049Z,84.38
2017-12-22T09:34:04.645Z,95.63
2017-12-22T09:35:04.689Z,101.25
2017-12-22T09:36:04.633Z,101.25
2017-12-22T09:37:04.759Z,101.25
2017-12-22T09:38:04.622Z,101.25
2017-12-22T09:39:04.615Z,101.25
2017-12-22T09:40:04.610Z,101.25
2017-12-22T09:41:04.607Z,101.25
2017-12-22T09:42:04.598Z,101.25
2017-12-22T09:43:04.591Z,101.25
2017-12-22T09:44:04.879Z,101.25
2017-12-22T09:45:04.673Z,101.25
2017-12-22T09:46:04.574Z,101.25
2017-12-22T09:47:04.568Z,101.25
2017-12-22T09:48:04.569Z,101.25
2017-12-22T09:49:04.557Z,101.25
2017-12-22T09:50:04.546Z,101.25
2017-12-22T09:51:04.576Z,101.25
2017-12-22T09:52:04.725Z,106.88
2017-12-22T09:53:04.578Z,118.13
2017-12-22T09:54:04.841Z,118.13
2017-12-22T09:55:04.521Z,112.50
2017-12-22T09:56:04.517Z,112.50
2017-12-22T09:57:04.509Z,112.50
2017-12-22T09:58:04.503Z,112.50
2017-12-22T09:59:04.858Z,112.50
2017-12-22T10:00:04.501Z,101.25
2017-12-22T10:01:04.565Z,101.25
2017-12-22T10:02:04.616Z,101.25
2017-12-22T10:03:04.477Z,101.25
2017-12-22T10:04:04.469Z,106.88
2017-12-22T10:05:04.452Z,106.88
2017-12-22T10:06:04.457Z,106.88
2017-12-22T10:07:04.455Z,106.88
2017-12-22T10:08:04.448Z,106.88
2017-12-22T10:09:04.438Z,101.25
2017-12-22T10:10:04.435Z,95.63
2017-12-22T10:11:04.431Z,90.00
2017-12-22T10:12:04.423Z,78.75
2017-12-22T10:13:04.414Z,73.13
2017-12-22T10:14:04.554Z,67.50
2017-12-22T10:15:04.406Z,61.88
2017-12-22T10:16:04.438Z,56.25
2017-12-22T10:17:04.382Z,56.25
2017-12-22T10:18:04.391Z,56.25
2017-12-22T10:19:04.383Z,56.25
2017-12-22T10:20:04.383Z,56.25
2017-12-22T10:21:04.372Z,61.88
2017-12-22T10:22:04.366Z,61.88
2017-12-22T10:23:04.357Z,67.50
2017-12-22T10:24:04.353Z,73.13
2017-12-22T10:25:04.477Z,78.75
2017-12-22T10:26:04.341Z,78.75
2017-12-22T10:27:04.335Z,84.38
2017-12-22T10:28:04.330Z,78.75
2017-12-22T10:29:04.324Z,78.75
2017-12-22T10:30:04.318Z,73.13
2017-12-22T10:31:04.312Z,78.75
2017-12-22T10:32:04.308Z,78.75
2017-12-22T10:33:04.298Z,78.75
2017-12-22T10:34:04.293Z,84.38
2017-12-22T10:35:04.291Z,90.00
2017-12-22T10:36:04.423Z,90.00
2017-12-22T10:37:04.277Z,84.38
2017-12-22T10:38:04.271Z,78.75
2017-12-22T10:39:04.265Z,73.13
2017-12-22T10:40:04.260Z,73.13
2017-12-22T10:41:04.252Z,78.75
2017-12-22T10:42:04.461Z,78.75
2017-12-22T10:43:04.243Z,84.38
2017-12-22T10:44:04.351Z,90.00
2017-12-22T10:45:04.233Z,90.00
2017-12-22T10:46:04.224Z,95.63
2017-12-22T10:47:04.237Z,101.25
2017-12-22T10:48:04.213Z,112.50
2017-12-22T10:49:04.206Z,135.00
2017-12-22T10:50:04.285Z,146.25
2017-12-22T10:51:04.186Z,157.50
2017-12-22T10:52:04.190Z,168.75
2017-12-22T10:53:04.201Z,174.38
2017-12-22T10:54:04.205Z,180.00
2017-12-22T10:55:04.199Z,185.63
2017-12-22T10:56:04.167Z,191.25
2017-12-22T10:57:04.318Z,191.25
2017-12-22T10:58:04.156Z,185.63
2017-12-22T10:59:04.148Z,180.00
2017-12-22T11:00:04.254Z,163.13
2017-12-22T11:01:04.167Z,146.25
2017-12-22T11:02:04.158Z,135.00
2017-12-22T11:03:04.128Z,123.75
2017-12-22T11:04:04.375Z,112.50
2017-12-22T11:05:04.115Z,106.88
2017-12-22T11:06:04.111Z,106.88
2017-12-22T11:07:04.106Z,106.88
2017-12-22T11:08:04.095Z,106.88
2017-12-22T11:09:04.093Z,101.25
2017-12-22T11:10:04.087Z,101.25
2017-12-22T11:11:04.086Z,95.63
2017-12-22T11:12:04.078Z,95.63
2017-12-22T11:13:04.073Z,101.25
2017-12-22T11:14:04.560Z,95.63
2017-12-22T11:15:04.051Z,90.00
2017-12-22T11:16:04.060Z,90.00
2017-12-22T11:17:04.048Z,84.38
2017-12-22T11:18:04.044Z,84.38
2017-12-22T11:19:04.110Z,84.38
2017-12-22T11:20:04.037Z,84.38
2017-12-22T11:21:04.026Z,84.38
2017-12-22T11:22:04.024Z,84.38
2017-12-22T11:23:04.687Z,90.00
2017-12-22T11:24:04.118Z,84.38
2017-12-22T11:25:04.005Z,84.38
2017-12-22T11:26:03.998Z,78.75
2017-12-22T11:27:04.261Z,73.13
2017-12-22T11:28:03.988Z,67.50
2017-12-22T11:29:03.980Z,61.88
2017-12-22T11:30:04.059Z,61.88
2017-12-22T11:31:04.063Z,67.50
2017-12-22T11:32:03.965Z,67.50
2017-12-22T11:33:03.967Z,61.88
2017-12-22T11:34:03.956Z,61.88
2017-12-22T11:35:03.997Z,56.25
2017-12-22T11:36:03.944Z,50.63
2017-12-22T11:37:03.937Z,45.00
2017-12-22T11:38:03.931Z,45.00
2017-12-22T11:39:03.926Z,39.38
2017-12-22T11:40:03.919Z,39.38
2017-12-22T11:41:03.915Z,39.38
2017-12-22T11:42:03.949Z,45.00
2017-12-22T11:43:03.902Z,45.00
2017-12-22T11:44:03.898Z,50.63
2017-12-22T11:45:03.892Z,50.63
2017-12-22T11:46:03.982Z,56.25
2017-12-22T11:47:03.870Z,56.25
2017-12-22T11:48:03.875Z,61.88
2017-12-22T11:49:03.871Z,61.88
2017-12-22T11:50:03.864Z,67.50
2017-12-22T11:51:04.026Z,67.50
2017-12-22T11:52:03.879Z,67.50
2017-12-22T11:53:03.978Z,67.50
2017-12-22T11:54:03.841Z,67.50
2017-12-22T11:55:03.833Z,67.50
2017-12-22T11:56:03.828Z,67.50
2017-12-22T11:57:03.823Z,73.13
2017-12-22T11:58:03.817Z,78.75
2017-12-22T11:59:03.889Z,73.13
2017-12-22T12:00:03.809Z,73.13
2017-12-22T12:01:03.803Z,78.75
2017-12-22T12:02:03.795Z,84.38
2017-12-22T12:03:03.882Z,95.63
2017-12-22T12:04:03.846Z,106.88
2017-12-22T12:05:04.085Z,118.13
2017-12-22T12:06:03.772Z,123.75
2017-12-22T12:07:03.766Z,123.75
2017-12-22T12:08:03.768Z,123.75
2017-12-22T12:09:03.835Z,112.50
2017-12-22T12:10:03.748Z,101.25
2017-12-22T12:11:03.746Z,84.38
2017-12-22T12:12:03.739Z,67.50
2017-12-22T12:13:03.731Z,56.25
2017-12-22T12:14:03.824Z,45.00
2017-12-22T12:15:03.719Z,39.38
2017-12-22T12:16:03.717Z,39.38
2017-12-22T12:17:03.707Z,33.75
2017-12-22T12:18:03.706Z,33.75
2017-12-22T12:19:03.737Z,33.75
2017-12-22T12:20:03.698Z,33.75
2017-12-22T12:21:03.686Z,33.75
2017-12-22T12:22:03.683Z,33.75
2017-12-22T12:23:03.680Z,33.75
2017-12-22T12:24:03.861Z,28.13
2017-12-22T12:25:03.705Z,28.13
2017-12-22T12:26:03.661Z,33.75
2017-12-22T12:27:03.653Z,33.75
2017-12-22T12:28:03.650Z,33.75
2017-12-22T12:29:03.645Z,39.38
2017-12-22T12:30:03.637Z,39.38
2017-12-22T12:31:03.634Z,39.38
2017-12-22T12:32:03.617Z,39.38
2017-12-22T12:33:03.620Z,39.38
2017-12-22T12:34:03.614Z,45.00
2017-12-22T12:35:03.610Z,45.00
2017-12-22T12:36:03.604Z,39.38
2017-12-22T12:37:03.596Z,39.38
2017-12-22T12:38:03.591Z,33.75
2017-12-22T12:39:03.576Z,33.75
2017-12-22T12:40:03.772Z,28.13
2017-12-22T12:41:03.673Z,33.75
2017-12-22T12:42:03.566Z,33.75
2017-12-22T12:43:03.565Z,39.38
2017-12-22T12:44:03.900Z,39.38
2017-12-22T12:45:03.702Z,50.63
2017-12-22T12:46:03.548Z,50.63
2017-12-22T12:47:03.540Z,56.25
2017-12-22T12:48:03.536Z,56.25
2017-12-22T12:49:03.529Z,50.63
2017-12-22T12:50:03.527Z,56.25
2017-12-22T12:51:03.518Z,56.25
2017-12-22T12:52:03.513Z,56.25
2017-12-22T12:53:03.507Z,61.88
2017-12-22T12:54:03.608Z,61.88
2017-12-22T12:55:03.496Z,61.88
2017-12-22T12:56:03.490Z,61.88
2017-12-22T12:57:03.483Z,61.88
2017-12-22T12:58:03.477Z,61.88
2017-12-22T12:59:03.488Z,56.25
2017-12-22T13:00:03.466Z,56.25
2017-12-22T13:01:03.497Z,56.25
2017-12-22T13:02:03.467Z,50.63
2017-12-22T13:03:03.449Z,45.00
2017-12-22T13:04:03.674Z,33.75
2017-12-22T13:05:03.628Z,28.13